LGMT/MJT METAR and TAF weather

Enter ICAO airport designator
Station Type Date Time Source
LGMT METAR 2021/08/04 19:20 UTC NOAA

LGMT 041920Z 31009KT CAVOK 33/17 Q1012


Station Type Date Time Source
LGMT Decoded METAR 2021/08/04 19:20 UTC NOAA

Mytilini Airport , Greece (LGMT) 39-04N 026-36E 5M
Aug 04, 2021 - 03:20 PM EDT / 2021.08.04 1920 UTC
Wind: from the NW (310 degrees) at 10 MPH (9 KT):0
Visibility: greater than 7 mile(s):0
Temperature: 91 F (33 C)
Dew Point: 62 F (17 C)
Relative Humidity: 38%
Pressure (altimeter): 29.88 in. Hg (1012 hPa)
ob: LGMT 041920Z 31009KT CAVOK 33/17 Q1012
cycle: 19

Station Type Date Time Source
LGMT TAF 2012/09/21 03:06 UTC NOAA

TAF LGMT 210200Z 2103/2115 VRB05KT 9999 SCT020
BECMG 2103/2105 30015KT PROB30
TEMPO 2103/2106 7000 RA SCT018 BKN030
BECMG 2107/2109 29012KT

Example: see airport list